Airfield :
LOGIN :

Register | Disclaimer

   EN    FR    IT 

 










Legend :    VFR   Marginal VFR   IFR   Intensive IFR   Very Intensive IFR
Visi :
Ceiling :
>= 8 km
>= 3000ft
5 to 8 km
1000 to 3000 ft
1500m to 5 km
500 to 1000 ft
800 to 1500m
200 to 500 ft
< 800m
< 200 ft
Symbols :   Thunderstorms  Fog  Heavy snow  Heavy precipitations  Wind > 20 kt
SIGMETs :     Misc.  Thunderstorms  Icing  Turbulence  Mountain Waves  Volcanic Ashes







- Airport Elevation : 297 ft


EGVP - Middle Wallop

CURRENT METAR :
  • 250050Z AUTO 29005KT 6000 // OVC060/// 16/15 Q1017

EXPIRED METARs :
  • 242350Z AUTO 34003KT 9999 // OVC070/// 17/15 Q1018
  • 242320Z 30002KT 9999 -RA BKN070 OVC100 17/15 Q1018 NOSIG RMK BLU BLU
  • 242250Z 30005KT CAVOK 17/16 Q1018 BECMG 7000 BR RMK BLU BECMG WHT
  • 242222Z 23001KT CAVOK 17/15 Q1018 BECMG 7000 BR RMK BLU BECMG WHT

Expired Forecast.
ATIS : +44 1980 674 142
No reported NOTAMs for that airfield.
2 SIGMETs reported for the London FIR (EGTT) :
 
Embedded thunderstorms
EGTT SIGMET 07 VALID 242100/250100 EGRR
EGTT LONDON FIR EMBD TS FCST WI N5000 W00200 - N5040 W00130 - N5040 E00030 - N5016 E00027 - N5000 W00015 - N5000 W00200 TOP FL360 MOV NNE 20KT NC=
Embedded thunderstorms
EGTT SIGMET 01 VALID 250100/250500 EGRR
EGTT LONDON FIR EMBD TS FCST WI N5130 W00100 - N5135 E00100 - N5030 E00101 - N5000 W00015 - N5000 W00200 - N5130 W00100 TOP FL360 MOV NNE 20KT NC=



MET'MAP, your aeronautical weather chart ! - Copyright ORBIFLY December 2007 - Disclaimer

ORBIFLY MET'MAP TEAM :

Programming & Development : Alexandra Zaïnal
Concept & Development : Baudouin d'Aumeries
Co-Development & Prog : Marc-Olivier Méhu
Technical & hardware support : Manuel Goepfert

Contact : metmap@orbifly.com




SOURCES & CREDITS :

   NOAA